sensor_id;sensor_type;location;lat;lon;timestamp;temperature;humidity
59857;DHT22;45733;52.668;6.860;2022-12-28T00:01:17;6.50;99.90
59857;DHT22;45733;52.668;6.860;2022-12-28T00:03:44;6.50;99.90
59857;DHT22;45733;52.668;6.860;2022-12-28T00:06:10;6.40;99.90
59857;DHT22;45733;52.668;6.860;2022-12-28T00:08:36;6.50;99.90
59857;DHT22;45733;52.668;6.860;2022-12-28T00:11:14;6.40;99.90
59857;DHT22;45733;52.668;6.860;2022-12-28T00:13:40;6.40;99.90
59857;DHT22;45733;52.668;6.860;2022-12-28T00:16:25;6.40;99.90
59857;DHT22;45733;52.668;6.860;2022-12-28T00:18:53;6.40;99.90
59857;DHT22;45733;52.668;6.860;2022-12-28T00:21:19;6.40;99.90
59857;DHT22;45733;52.668;6.860;2022-12-28T00:23:51;6.40;99.90
59857;DHT22;45733;52.668;6.860;2022-12-28T00:26:17;6.40;99.90
59857;DHT22;45733;52.668;6.860;2022-12-28T00:28:43;6.40;99.90
59857;DHT22;45733;52.668;6.860;2022-12-28T00:31:11;6.40;99.90
59857;DHT22;45733;52.668;6.860;2022-12-28T00:33:37;6.30;99.90
59857;DHT22;45733;52.668;6.860;2022-12-28T00:36:04;6.40;99.90
59857;DHT22;45733;52.668;6.860;2022-12-28T00:38:31;6.40;99.90
59857;DHT22;45733;52.668;6.860;2022-12-28T00:40:57;6.40;99.90
59857;DHT22;45733;52.668;6.860;2022-12-28T00:43:24;6.30;99.90
59857;DHT22;45733;52.668;6.860;2022-12-28T00:45:50;6.40;99.90
59857;DHT22;45733;52.668;6.860;2022-12-28T00:48:16;6.40;99.90
59857;DHT22;45733;52.668;6.860;2022-12-28T00:50:42;6.40;99.90
59857;DHT22;45733;52.668;6.860;2022-12-28T00:53:09;6.30;99.90
59857;DHT22;45733;52.668;6.860;2022-12-28T00:55:35;6.40;99.90
59857;DHT22;45733;52.668;6.860;2022-12-28T00:58:02;6.40;99.90
59857;DHT22;45733;52.668;6.860;2022-12-28T01:00:28;6.50;99.90
59857;DHT22;45733;52.668;6.860;2022-12-28T01:02:54;6.40;99.90
59857;DHT22;45733;52.668;6.860;2022-12-28T01:05:21;6.50;99.90
59857;DHT22;45733;52.668;6.860;2022-12-28T01:07:47;6.50;99.90
59857;DHT22;45733;52.668;6.860;2022-12-28T01:10:13;6.60;99.90
59857;DHT22;45733;52.668;6.860;2022-12-28T01:12:39;6.50;99.90
59857;DHT22;45733;52.668;6.860;2022-12-28T01:15:07;6.50;99.90
59857;DHT22;45733;52.668;6.860;2022-12-28T01:17:33;6.50;99.90
59857;DHT22;45733;52.668;6.860;2022-12-28T01:19:58;6.60;99.90
59857;DHT22;45733;52.668;6.860;2022-12-28T01:22:25;6.50;99.90
59857;DHT22;45733;52.668;6.860;2022-12-28T01:24:51;6.60;99.90
59857;DHT22;45733;52.668;6.860;2022-12-28T01:27:17;6.60;99.90
59857;DHT22;45733;52.668;6.860;2022-12-28T01:29:44;6.70;99.90
59857;DHT22;45733;52.668;6.860;2022-12-28T01:32:09;6.60;99.90
59857;DHT22;45733;52.668;6.860;2022-12-28T01:34:35;6.50;99.90
59857;DHT22;45733;52.668;6.860;2022-12-28T01:37:02;6.60;99.90
59857;DHT22;45733;52.668;6.860;2022-12-28T01:39:28;6.60;99.90
59857;DHT22;45733;52.668;6.860;2022-12-28T01:41:54;6.60;99.90
59857;DHT22;45733;52.668;6.860;2022-12-28T01:49:29;6.70;99.90
59857;DHT22;45733;52.668;6.860;2022-12-28T01:52:13;6.70;99.90
59857;DHT22;45733;52.668;6.860;2022-12-28T01:54:51;6.70;99.90
59857;DHT22;45733;52.668;6.860;2022-12-28T01:57:19;6.60;99.90
59857;DHT22;45733;52.668;6.860;2022-12-28T01:59:52;6.60;99.90
59857;DHT22;45733;52.668;6.860;2022-12-28T02:02:19;6.70;99.90
59857;DHT22;45733;52.668;6.860;2022-12-28T02:04:46;6.70;99.90
59857;DHT22;45733;52.668;6.860;2022-12-28T02:07:16;6.70;99.90
59857;DHT22;45733;52.668;6.860;2022-12-28T02:09:45;6.80;99.90
59857;DHT22;45733;52.668;6.860;2022-12-28T02:12:14;6.80;99.90
59857;DHT22;45733;52.668;6.860;2022-12-28T02:14:43;6.80;99.90
59857;DHT22;45733;52.668;6.860;2022-12-28T02:17:09;6.80;99.90
59857;DHT22;45733;52.668;6.860;2022-12-28T02:19:44;6.90;99.90
59857;DHT22;45733;52.668;6.860;2022-12-28T02:25:48;6.80;99.90
59857;DHT22;45733;52.668;6.860;2022-12-28T02:31:28;6.80;99.90
59857;DHT22;45733;52.668;6.860;2022-12-28T02:36:29;6.90;99.90
59857;DHT22;45733;52.668;6.860;2022-12-28T02:39:12;6.90;99.90
59857;DHT22;45733;52.668;6.860;2022-12-28T02:41:40;6.90;99.90
59857;DHT22;45733;52.668;6.860;2022-12-28T02:44:06;6.90;99.90
59857;DHT22;45733;52.668;6.860;2022-12-28T02:46:33;7.00;99.90
59857;DHT22;45733;52.668;6.860;2022-12-28T02:49:26;6.90;99.90
59857;DHT22;45733;52.668;6.860;2022-12-28T02:58:18;7.00;99.90
59857;DHT22;45733;52.668;6.860;2022-12-28T03:12:13;7.10;99.90
59857;DHT22;45733;52.668;6.860;2022-12-28T03:14:48;7.10;99.90
59857;DHT22;45733;52.668;6.860;2022-12-28T03:17:15;7.10;99.90
59857;DHT22;45733;52.668;6.860;2022-12-28T03:20:10;7.30;99.90
59857;DHT22;45733;52.668;6.860;2022-12-28T03:22:57;7.20;99.90
59857;DHT22;45733;52.668;6.860;2022-12-28T03:25:44;7.20;99.90
59857;DHT22;45733;52.668;6.860;2022-12-28T03:28:30;7.20;99.90
59857;DHT22;45733;52.668;6.860;2022-12-28T03:31:22;7.30;99.90
59857;DHT22;45733;52.668;6.860;2022-12-28T03:33:52;7.40;99.90
59857;DHT22;45733;52.668;6.860;2022-12-28T03:36:24;7.30;99.90
59857;DHT22;45733;52.668;6.860;2022-12-28T03:45:17;7.50;99.90
59857;DHT22;45733;52.668;6.860;2022-12-28T03:47:44;7.50;99.90
59857;DHT22;45733;52.668;6.860;2022-12-28T03:50:13;7.50;99.90
59857;DHT22;45733;52.668;6.860;2022-12-28T03:52:39;7.50;99.90
59857;DHT22;45733;52.668;6.860;2022-12-28T03:55:05;7.60;99.90
59857;DHT22;45733;52.668;6.860;2022-12-28T03:57:31;7.50;99.90
59857;DHT22;45733;52.668;6.860;2022-12-28T03:59:57;7.50;99.90
59857;DHT22;45733;52.668;6.860;2022-12-28T04:02:23;7.50;99.90
59857;DHT22;45733;52.668;6.860;2022-12-28T04:04:48;7.50;99.90
59857;DHT22;45733;52.668;6.860;2022-12-28T04:07:14;7.40;99.90
59857;DHT22;45733;52.668;6.860;2022-12-28T04:09:40;7.50;99.90
59857;DHT22;45733;52.668;6.860;2022-12-28T04:12:06;7.50;99.90
59857;DHT22;45733;52.668;6.860;2022-12-28T04:14:32;7.50;99.90
59857;DHT22;45733;52.668;6.860;2022-12-28T04:16:58;7.60;99.90
59857;DHT22;45733;52.668;6.860;2022-12-28T04:19:24;7.50;99.90
59857;DHT22;45733;52.668;6.860;2022-12-28T04:21:50;7.60;99.90
59857;DHT22;45733;52.668;6.860;2022-12-28T04:24:16;7.50;99.90
59857;DHT22;45733;52.668;6.860;2022-12-28T04:26:41;7.50;99.90
59857;DHT22;45733;52.668;6.860;2022-12-28T04:29:07;7.60;99.90
59857;DHT22;45733;52.668;6.860;2022-12-28T04:31:33;7.60;99.90
59857;DHT22;45733;52.668;6.860;2022-12-28T04:33:59;7.60;99.90
59857;DHT22;45733;52.668;6.860;2022-12-28T04:36:25;7.60;99.90
59857;DHT22;45733;52.668;6.860;2022-12-28T04:38:51;7.60;99.90
59857;DHT22;45733;52.668;6.860;2022-12-28T04:41:17;7.60;99.90
59857;DHT22;45733;52.668;6.860;2022-12-28T04:43:43;7.50;99.90
59857;DHT22;45733;52.668;6.860;2022-12-28T04:46:12;7.60;99.90
59857;DHT22;45733;52.668;6.860;2022-12-28T04:48:38;7.70;99.90
59857;DHT22;45733;52.668;6.860;2022-12-28T04:51:10;7.70;99.90
59857;DHT22;45733;52.668;6.860;2022-12-28T04:53:40;7.70;99.90
59857;DHT22;45733;52.668;6.860;2022-12-28T04:56:07;7.60;99.90
59857;DHT22;45733;52.668;6.860;2022-12-28T04:58:33;7.80;99.90
59857;DHT22;45733;52.668;6.860;2022-12-28T05:01:11;7.90;99.90
59857;DHT22;45733;52.668;6.860;2022-12-28T05:03:38;7.90;99.90
59857;DHT22;45733;52.668;6.860;2022-12-28T05:06:07;7.90;99.90
59857;DHT22;45733;52.668;6.860;2022-12-28T05:08:35;8.00;99.90
59857;DHT22;45733;52.668;6.860;2022-12-28T05:11:05;7.90;99.90
59857;DHT22;45733;52.668;6.860;2022-12-28T05:13:32;7.90;99.90
59857;DHT22;45733;52.668;6.860;2022-12-28T05:16:12;8.00;99.90
59857;DHT22;45733;52.668;6.860;2022-12-28T05:18:38;8.00;99.90
59857;DHT22;45733;52.668;6.860;2022-12-28T05:21:07;8.00;99.90
59857;DHT22;45733;52.668;6.860;2022-12-28T05:23:35;8.00;99.90
59857;DHT22;45733;52.668;6.860;2022-12-28T05:26:01;8.10;99.90
59857;DHT22;45733;52.668;6.860;2022-12-28T05:28:27;8.10;99.90
59857;DHT22;45733;52.668;6.860;2022-12-28T05:30:58;8.10;99.90
59857;DHT22;45733;52.668;6.860;2022-12-28T05:33:25;8.20;99.90
59857;DHT22;45733;52.668;6.860;2022-12-28T05:35:51;8.20;99.90
59857;DHT22;45733;52.668;6.860;2022-12-28T05:38:17;8.20;99.90
59857;DHT22;45733;52.668;6.860;2022-12-28T05:40:43;8.20;99.90
59857;DHT22;45733;52.668;6.860;2022-12-28T05:43:09;8.20;99.90
59857;DHT22;45733;52.668;6.860;2022-12-28T05:45:34;8.30;99.90
59857;DHT22;45733;52.668;6.860;2022-12-28T05:48:00;8.30;99.90
59857;DHT22;45733;52.668;6.860;2022-12-28T05:50:29;8.40;99.90
59857;DHT22;45733;52.668;6.860;2022-12-28T05:52:55;8.40;99.90
59857;DHT22;45733;52.668;6.860;2022-12-28T05:55:22;8.40;99.90
59857;DHT22;45733;52.668;6.860;2022-12-28T05:57:48;8.40;99.90
59857;DHT22;45733;52.668;6.860;2022-12-28T06:00:15;8.30;99.90
59857;DHT22;45733;52.668;6.860;2022-12-28T06:02:41;8.50;99.90
59857;DHT22;45733;52.668;6.860;2022-12-28T06:05:10;8.50;99.90
59857;DHT22;45733;52.668;6.860;2022-12-28T06:07:35;8.40;99.90
59857;DHT22;45733;52.668;6.860;2022-12-28T06:10:01;8.50;99.90
59857;DHT22;45733;52.668;6.860;2022-12-28T06:12:27;8.50;99.90
59857;DHT22;45733;52.668;6.860;2022-12-28T06:14:53;8.50;99.90
59857;DHT22;45733;52.668;6.860;2022-12-28T06:17:19;8.60;99.90
59857;DHT22;45733;52.668;6.860;2022-12-28T06:19:45;8.50;99.90
59857;DHT22;45733;52.668;6.860;2022-12-28T06:22:11;8.60;99.90
59857;DHT22;45733;52.668;6.860;2022-12-28T06:24:37;8.70;99.90
59857;DHT22;45733;52.668;6.860;2022-12-28T06:27:03;8.70;99.90
59857;DHT22;45733;52.668;6.860;2022-12-28T06:29:29;8.60;99.90
59857;DHT22;45733;52.668;6.860;2022-12-28T06:31:54;8.60;99.90
59857;DHT22;45733;52.668;6.860;2022-12-28T06:34:23;8.70;99.90
59857;DHT22;45733;52.668;6.860;2022-12-28T06:36:49;8.70;99.90
59857;DHT22;45733;52.668;6.860;2022-12-28T06:39:17;8.80;99.90
59857;DHT22;45733;52.668;6.860;2022-12-28T06:41:43;8.80;99.90
59857;DHT22;45733;52.668;6.860;2022-12-28T06:44:11;8.80;99.90
59857;DHT22;45733;52.668;6.860;2022-12-28T06:46:37;8.80;99.90
59857;DHT22;45733;52.668;6.860;2022-12-28T06:49:03;8.80;99.90
59857;DHT22;45733;52.668;6.860;2022-12-28T06:51:31;8.80;99.90
59857;DHT22;45733;52.668;6.860;2022-12-28T06:54:01;8.80;99.90
59857;DHT22;45733;52.668;6.860;2022-12-28T06:56:29;8.80;99.90
59857;DHT22;45733;52.668;6.860;2022-12-28T06:58:58;8.80;99.90
59857;DHT22;45733;52.668;6.860;2022-12-28T07:01:27;8.80;99.90
59857;DHT22;45733;52.668;6.860;2022-12-28T07:03:54;9.00;99.90
59857;DHT22;45733;52.668;6.860;2022-12-28T07:06:22;8.90;99.90
59857;DHT22;45733;52.668;6.860;2022-12-28T07:08:49;9.00;99.90
59857;DHT22;45733;52.668;6.860;2022-12-28T07:11:20;9.00;99.90
59857;DHT22;45733;52.668;6.860;2022-12-28T07:13:49;9.00;99.90
59857;DHT22;45733;52.668;6.860;2022-12-28T07:16:20;9.00;99.90
59857;DHT22;45733;52.668;6.860;2022-12-28T07:18:46;9.00;99.90
59857;DHT22;45733;52.668;6.860;2022-12-28T07:21:48;9.00;99.90
59857;DHT22;45733;52.668;6.860;2022-12-28T07:24:06;9.00;99.90
59857;DHT22;45733;52.668;6.860;2022-12-28T07:26:34;9.10;99.90
59857;DHT22;45733;52.668;6.860;2022-12-28T07:29:02;9.10;99.90
59857;DHT22;45733;52.668;6.860;2022-12-28T07:31:30;9.20;99.90
59857;DHT22;45733;52.668;6.860;2022-12-28T07:33:58;9.20;99.90
59857;DHT22;45733;52.668;6.860;2022-12-28T07:36:25;9.20;99.90
59857;DHT22;45733;52.668;6.860;2022-12-28T07:38:53;9.30;99.90
59857;DHT22;45733;52.668;6.860;2022-12-28T07:41:22;9.10;99.90
59857;DHT22;45733;52.668;6.860;2022-12-28T07:43:48;9.10;99.90
59857;DHT22;45733;52.668;6.860;2022-12-28T07:46:22;9.20;99.90
59857;DHT22;45733;52.668;6.860;2022-12-28T07:48:49;9.20;99.90
59857;DHT22;45733;52.668;6.860;2022-12-28T07:51:20;9.20;99.90
59857;DHT22;45733;52.668;6.860;2022-12-28T07:53:47;9.30;99.90
59857;DHT22;45733;52.668;6.860;2022-12-28T07:56:14;9.30;99.90
59857;DHT22;45733;52.668;6.860;2022-12-28T07:58:40;9.30;99.90
59857;DHT22;45733;52.668;6.860;2022-12-28T08:01:08;9.30;99.90
59857;DHT22;45733;52.668;6.860;2022-12-28T08:03:35;9.30;99.90
59857;DHT22;45733;52.668;6.860;2022-12-28T08:06:09;9.30;99.90
59857;DHT22;45733;52.668;6.860;2022-12-28T08:08:41;9.40;99.90
59857;DHT22;45733;52.668;6.860;2022-12-28T08:11:09;9.30;99.90
59857;DHT22;45733;52.668;6.860;2022-12-28T08:13:37;9.30;99.90
59857;DHT22;45733;52.668;6.860;2022-12-28T08:16:04;9.40;99.90
59857;DHT22;45733;52.668;6.860;2022-12-28T08:18:30;9.40;99.90
59857;DHT22;45733;52.668;6.860;2022-12-28T08:21:05;9.40;99.90
59857;DHT22;45733;52.668;6.860;2022-12-28T08:23:32;9.40;99.90
59857;DHT22;45733;52.668;6.860;2022-12-28T08:26:08;9.40;99.90
59857;DHT22;45733;52.668;6.860;2022-12-28T08:28:35;9.50;99.90
59857;DHT22;45733;52.668;6.860;2022-12-28T08:31:13;9.40;99.90
59857;DHT22;45733;52.668;6.860;2022-12-28T08:33:40;9.50;99.90
59857;DHT22;45733;52.668;6.860;2022-12-28T08:36:06;9.50;99.90
59857;DHT22;45733;52.668;6.860;2022-12-28T08:38:34;9.40;99.90
59857;DHT22;45733;52.668;6.860;2022-12-28T08:41:03;9.50;99.90
59857;DHT22;45733;52.668;6.860;2022-12-28T08:43:30;9.50;99.90
59857;DHT22;45733;52.668;6.860;2022-12-28T08:46:09;9.40;99.90
59857;DHT22;45733;52.668;6.860;2022-12-28T08:48:35;9.40;99.90
59857;DHT22;45733;52.668;6.860;2022-12-28T08:51:13;9.60;99.90
59857;DHT22;45733;52.668;6.860;2022-12-28T08:53:39;9.50;99.90
59857;DHT22;45733;52.668;6.860;2022-12-28T08:58:35;9.50;99.90
59857;DHT22;45733;52.668;6.860;2022-12-28T09:03:31;9.60;99.90
59857;DHT22;45733;52.668;6.860;2022-12-28T09:06:02;9.60;99.90
59857;DHT22;45733;52.668;6.860;2022-12-28T09:08:28;9.60;99.90
59857;DHT22;45733;52.668;6.860;2022-12-28T09:10:54;9.60;99.90
59857;DHT22;45733;52.668;6.860;2022-12-28T09:13:24;9.60;99.90
59857;DHT22;45733;52.668;6.860;2022-12-28T09:16:07;9.60;99.90
59857;DHT22;45733;52.668;6.860;2022-12-28T09:18:34;9.60;99.90
59857;DHT22;45733;52.668;6.860;2022-12-28T09:23:34;9.70;99.90
59857;DHT22;45733;52.668;6.860;2022-12-28T09:26:15;9.80;99.90
59857;DHT22;45733;52.668;6.860;2022-12-28T09:28:59;9.70;99.90
59857;DHT22;45733;52.668;6.860;2022-12-28T09:31:28;9.80;99.90
59857;DHT22;45733;52.668;6.860;2022-12-28T09:33:54;9.80;99.90
59857;DHT22;45733;52.668;6.860;2022-12-28T09:36:30;9.90;99.90
59857;DHT22;45733;52.668;6.860;2022-12-28T09:38:58;9.90;99.90
59857;DHT22;45733;52.668;6.860;2022-12-28T09:55:13;10.00;99.90
59857;DHT22;45733;52.668;6.860;2022-12-28T09:57:58;9.90;99.90
59857;DHT22;45733;52.668;6.860;2022-12-28T10:00:42;10.00;99.90
59857;DHT22;45733;52.668;6.860;2022-12-28T10:03:14;9.90;99.90
59857;DHT22;45733;52.668;6.860;2022-12-28T10:05:41;10.10;99.90
59857;DHT22;45733;52.668;6.860;2022-12-28T10:08:11;10.00;99.90
59857;DHT22;45733;52.668;6.860;2022-12-28T10:10:39;10.10;99.90
59857;DHT22;45733;52.668;6.860;2022-12-28T10:13:38;10.10;99.90
59857;DHT22;45733;52.668;6.860;2022-12-28T10:16:05;10.00;99.90
59857;DHT22;45733;52.668;6.860;2022-12-28T10:18:32;10.00;99.90
59857;DHT22;45733;52.668;6.860;2022-12-28T10:20:59;10.10;99.90
59857;DHT22;45733;52.668;6.860;2022-12-28T10:23:28;10.10;99.90
59857;DHT22;45733;52.668;6.860;2022-12-28T10:25:57;10.10;99.90
59857;DHT22;45733;52.668;6.860;2022-12-28T10:28:27;10.10;99.90
59857;DHT22;45733;52.668;6.860;2022-12-28T10:31:07;10.10;99.90
59857;DHT22;45733;52.668;6.860;2022-12-28T10:33:40;10.20;99.90
59857;DHT22;45733;52.668;6.860;2022-12-28T10:36:12;10.20;99.90
59857;DHT22;45733;52.668;6.860;2022-12-28T10:38:40;10.20;99.90
59857;DHT22;45733;52.668;6.860;2022-12-28T10:41:12;10.10;99.90
59857;DHT22;45733;52.668;6.860;2022-12-28T10:43:40;10.30;99.90
59857;DHT22;45733;52.668;6.860;2022-12-28T10:46:18;10.20;99.90
59857;DHT22;45733;52.668;6.860;2022-12-28T10:48:56;10.10;99.90
59857;DHT22;45733;52.668;6.860;2022-12-28T10:51:25;10.20;99.90
59857;DHT22;45733;52.668;6.860;2022-12-28T10:53:56;10.10;99.90
59857;DHT22;45733;52.668;6.860;2022-12-28T10:56:28;10.20;99.90
59857;DHT22;45733;52.668;6.860;2022-12-28T11:01:41;10.30;99.90
59857;DHT22;45733;52.668;6.860;2022-12-28T11:04:18;10.20;99.90
59857;DHT22;45733;52.668;6.860;2022-12-28T11:06:53;10.30;99.90
59857;DHT22;45733;52.668;6.860;2022-12-28T11:09:23;10.20;99.90
59857;DHT22;45733;52.668;6.860;2022-12-28T11:11:51;10.20;99.90
59857;DHT22;45733;52.668;6.860;2022-12-28T11:16:52;10.20;99.90
59857;DHT22;45733;52.668;6.860;2022-12-28T11:19:19;10.20;99.90
59857;DHT22;45733;52.668;6.860;2022-12-28T11:21:45;10.20;99.90
59857;DHT22;45733;52.668;6.860;2022-12-28T11:24:16;10.30;99.90
59857;DHT22;45733;52.668;6.860;2022-12-28T11:26:47;10.20;99.90
59857;DHT22;45733;52.668;6.860;2022-12-28T11:29:15;10.30;99.90
59857;DHT22;45733;52.668;6.860;2022-12-28T11:31:50;10.30;99.90
59857;DHT22;45733;52.668;6.860;2022-12-28T11:34:23;10.20;99.90
59857;DHT22;45733;52.668;6.860;2022-12-28T11:36:50;10.30;99.90
59857;DHT22;45733;52.668;6.860;2022-12-28T11:41:56;10.20;99.90
59857;DHT22;45733;52.668;6.860;2022-12-28T11:47:18;10.40;99.90
59857;DHT22;45733;52.668;6.860;2022-12-28T11:49:46;10.40;99.90
59857;DHT22;45733;52.668;6.860;2022-12-28T11:55:02;10.40;99.90
59857;DHT22;45733;52.668;6.860;2022-12-28T11:57:46;10.40;99.90
59857;DHT22;45733;52.668;6.860;2022-12-28T12:02:58;10.40;99.90
59857;DHT22;45733;52.668;6.860;2022-12-28T12:11:18;10.30;99.90
59857;DHT22;45733;52.668;6.860;2022-12-28T12:13:47;10.20;99.90
59857;DHT22;45733;52.668;6.860;2022-12-28T12:16:38;10.30;99.90
59857;DHT22;45733;52.668;6.860;2022-12-28T12:19:22;10.20;99.90
59857;DHT22;45733;52.668;6.860;2022-12-28T12:22:09;10.30;99.90
59857;DHT22;45733;52.668;6.860;2022-12-28T12:25:07;10.30;99.90
59857;DHT22;45733;52.668;6.860;2022-12-28T12:27:40;10.20;99.90
59857;DHT22;45733;52.668;6.860;2022-12-28T12:30:14;10.20;99.90
59857;DHT22;45733;52.668;6.860;2022-12-28T12:33:02;10.20;99.90
59857;DHT22;45733;52.668;6.860;2022-12-28T12:35:37;10.20;99.90
59857;DHT22;45733;52.668;6.860;2022-12-28T12:50:38;10.20;99.90
59857;DHT22;45733;52.668;6.860;2022-12-28T12:52:40;10.30;99.90
59857;DHT22;45733;52.668;6.860;2022-12-28T12:55:20;10.30;99.90
59857;DHT22;45733;52.668;6.860;2022-12-28T13:03:27;10.30;99.90
59857;DHT22;45733;52.668;6.860;2022-12-28T13:05:57;10.30;99.90
59857;DHT22;45733;52.668;6.860;2022-12-28T13:08:53;10.30;99.90
59857;DHT22;45733;52.668;6.860;2022-12-28T13:11:21;10.30;99.90
59857;DHT22;45733;52.668;6.860;2022-12-28T13:13:50;10.30;99.90
59857;DHT22;45733;52.668;6.860;2022-12-28T13:16:23;10.20;99.90
59857;DHT22;45733;52.668;6.860;2022-12-28T13:19:03;10.30;99.90
59857;DHT22;45733;52.668;6.860;2022-12-28T13:21:39;10.30;99.90
59857;DHT22;45733;52.668;6.860;2022-12-28T13:24:22;10.20;99.90
59857;DHT22;45733;52.668;6.860;2022-12-28T13:26:49;10.30;99.90
59857;DHT22;45733;52.668;6.860;2022-12-28T13:29:22;10.30;99.90
59857;DHT22;45733;52.668;6.860;2022-12-28T13:31:49;10.30;99.90
59857;DHT22;45733;52.668;6.860;2022-12-28T13:34:23;10.30;99.90
59857;DHT22;45733;52.668;6.860;2022-12-28T13:36:54;10.20;99.90
59857;DHT22;45733;52.668;6.860;2022-12-28T13:39:22;10.30;99.90
59857;DHT22;45733;52.668;6.860;2022-12-28T13:42:03;10.30;99.90
59857;DHT22;45733;52.668;6.860;2022-12-28T13:44:42;10.30;99.90
59857;DHT22;45733;52.668;6.860;2022-12-28T13:50:10;10.20;99.90
59857;DHT22;45733;52.668;6.860;2022-12-28T13:52:47;10.20;99.90
59857;DHT22;45733;52.668;6.860;2022-12-28T13:55:22;10.30;99.90
59857;DHT22;45733;52.668;6.860;2022-12-28T13:57:52;10.30;99.90
59857;DHT22;45733;52.668;6.860;2022-12-28T14:00:21;10.20;99.90
59857;DHT22;45733;52.668;6.860;2022-12-28T14:02:49;10.20;99.90
59857;DHT22;45733;52.668;6.860;2022-12-28T14:05:18;10.20;99.90
59857;DHT22;45733;52.668;6.860;2022-12-28T14:07:45;10.20;99.90
59857;DHT22;45733;52.668;6.860;2022-12-28T14:10:11;10.20;99.90
59857;DHT22;45733;52.668;6.860;2022-12-28T14:12:38;10.20;99.90
59857;DHT22;45733;52.668;6.860;2022-12-28T14:15:06;10.20;99.90
59857;DHT22;45733;52.668;6.860;2022-12-28T14:17:32;10.20;99.90
59857;DHT22;45733;52.668;6.860;2022-12-28T14:19:59;10.10;99.90
59857;DHT22;45733;52.668;6.860;2022-12-28T14:22:31;10.10;99.90
59857;DHT22;45733;52.668;6.860;2022-12-28T14:25:18;10.10;99.90
59857;DHT22;45733;52.668;6.860;2022-12-28T14:28:02;10.10;99.90
59857;DHT22;45733;52.668;6.860;2022-12-28T14:30:36;10.10;99.90
59857;DHT22;45733;52.668;6.860;2022-12-28T14:33:18;10.10;99.90
59857;DHT22;45733;52.668;6.860;2022-12-28T14:35:48;10.10;99.90
59857;DHT22;45733;52.668;6.860;2022-12-28T14:38:24;10.10;99.90
59857;DHT22;45733;52.668;6.860;2022-12-28T14:40:54;10.00;99.90
59857;DHT22;45733;52.668;6.860;2022-12-28T14:43:32;10.10;99.90
59857;DHT22;45733;52.668;6.860;2022-12-28T14:46:14;10.10;99.90
59857;DHT22;45733;52.668;6.860;2022-12-28T14:48:40;10.10;99.90
59857;DHT22;45733;52.668;6.860;2022-12-28T14:53:36;10.00;99.90
59857;DHT22;45733;52.668;6.860;2022-12-28T14:56:08;10.00;99.90
59857;DHT22;45733;52.668;6.860;2022-12-28T14:58:47;10.00;99.90
59857;DHT22;45733;52.668;6.860;2022-12-28T15:01:14;10.00;99.90
59857;DHT22;45733;52.668;6.860;2022-12-28T15:03:59;10.00;99.90
59857;DHT22;45733;52.668;6.860;2022-12-28T15:06:27;10.00;99.90
59857;DHT22;45733;52.668;6.860;2022-12-28T15:08:55;10.00;99.90
59857;DHT22;45733;52.668;6.860;2022-12-28T15:11:24;10.00;99.90
59857;DHT22;45733;52.668;6.860;2022-12-28T15:13:50;10.00;99.90
59857;DHT22;45733;52.668;6.860;2022-12-28T15:16:18;10.00;99.90
59857;DHT22;45733;52.668;6.860;2022-12-28T15:18:44;10.00;99.90
59857;DHT22;45733;52.668;6.860;2022-12-28T15:21:17;10.10;99.90
59857;DHT22;45733;52.668;6.860;2022-12-28T15:23:47;10.00;99.90
59857;DHT22;45733;52.668;6.860;2022-12-28T15:26:13;10.00;99.90
59857;DHT22;45733;52.668;6.860;2022-12-28T15:28:39;10.00;99.90
59857;DHT22;45733;52.668;6.860;2022-12-28T15:31:06;10.00;99.90
59857;DHT22;45733;52.668;6.860;2022-12-28T15:33:33;10.00;99.90
59857;DHT22;45733;52.668;6.860;2022-12-28T15:36:10;10.00;99.90
59857;DHT22;45733;52.668;6.860;2022-12-28T15:38:38;10.00;99.90
59857;DHT22;45733;52.668;6.860;2022-12-28T15:41:04;10.00;99.90
59857;DHT22;45733;52.668;6.860;2022-12-28T15:43:50;10.00;99.90
59857;DHT22;45733;52.668;6.860;2022-12-28T15:46:16;10.00;99.90
59857;DHT22;45733;52.668;6.860;2022-12-28T15:48:42;10.00;99.90
59857;DHT22;45733;52.668;6.860;2022-12-28T15:51:07;10.00;99.90
59857;DHT22;45733;52.668;6.860;2022-12-28T15:53:33;10.00;99.90
59857;DHT22;45733;52.668;6.860;2022-12-28T15:55:59;10.00;99.90
59857;DHT22;45733;52.668;6.860;2022-12-28T15:58:26;10.10;99.90
59857;DHT22;45733;52.668;6.860;2022-12-28T16:00:52;10.00;99.90
59857;DHT22;45733;52.668;6.860;2022-12-28T16:03:18;10.00;99.90
59857;DHT22;45733;52.668;6.860;2022-12-28T16:05:44;10.10;99.90
59857;DHT22;45733;52.668;6.860;2022-12-28T16:08:10;10.00;99.90
59857;DHT22;45733;52.668;6.860;2022-12-28T16:10:36;10.00;99.90
59857;DHT22;45733;52.668;6.860;2022-12-28T16:13:01;10.00;99.90
59857;DHT22;45733;52.668;6.860;2022-12-28T16:15:27;10.00;99.90
59857;DHT22;45733;52.668;6.860;2022-12-28T16:17:53;10.00;99.90
59857;DHT22;45733;52.668;6.860;2022-12-28T16:20:19;10.00;99.90
59857;DHT22;45733;52.668;6.860;2022-12-28T16:22:46;10.00;99.90
59857;DHT22;45733;52.668;6.860;2022-12-28T16:25:11;10.10;99.90
59857;DHT22;45733;52.668;6.860;2022-12-28T16:27:37;10.00;99.90
59857;DHT22;45733;52.668;6.860;2022-12-28T16:30:04;10.00;99.90
59857;DHT22;45733;52.668;6.860;2022-12-28T16:32:31;10.10;99.90
59857;DHT22;45733;52.668;6.860;2022-12-28T16:34:56;10.10;99.90
59857;DHT22;45733;52.668;6.860;2022-12-28T16:37:23;10.10;99.90
59857;DHT22;45733;52.668;6.860;2022-12-28T16:39:49;10.10;99.90
59857;DHT22;45733;52.668;6.860;2022-12-28T16:42:14;10.10;99.90
59857;DHT22;45733;52.668;6.860;2022-12-28T16:44:40;10.10;99.90
59857;DHT22;45733;52.668;6.860;2022-12-28T16:47:06;10.10;99.90
59857;DHT22;45733;52.668;6.860;2022-12-28T16:49:32;10.10;99.90
59857;DHT22;45733;52.668;6.860;2022-12-28T16:51:58;10.00;99.90
59857;DHT22;45733;52.668;6.860;2022-12-28T16:54:25;10.00;99.90
59857;DHT22;45733;52.668;6.860;2022-12-28T16:56:52;10.10;99.90
59857;DHT22;45733;52.668;6.860;2022-12-28T16:59:24;10.00;99.90
59857;DHT22;45733;52.668;6.860;2022-12-28T17:01:54;10.00;99.90
59857;DHT22;45733;52.668;6.860;2022-12-28T17:04:21;10.10;99.90
59857;DHT22;45733;52.668;6.860;2022-12-28T17:06:49;10.10;99.90
59857;DHT22;45733;52.668;6.860;2022-12-28T17:09:16;10.10;99.90
59857;DHT22;45733;52.668;6.860;2022-12-28T17:11:45;10.00;99.90
59857;DHT22;45733;52.668;6.860;2022-12-28T17:14:15;9.90;99.90
59857;DHT22;45733;52.668;6.860;2022-12-28T17:16:40;9.90;99.90
59857;DHT22;45733;52.668;6.860;2022-12-28T17:19:06;9.90;99.90
59857;DHT22;45733;52.668;6.860;2022-12-28T17:21:33;9.90;99.90
59857;DHT22;45733;52.668;6.860;2022-12-28T17:23:59;9.90;99.90
59857;DHT22;45733;52.668;6.860;2022-12-28T17:26:25;9.80;99.90
59857;DHT22;45733;52.668;6.860;2022-12-28T17:28:55;9.80;99.90
59857;DHT22;45733;52.668;6.860;2022-12-28T17:31:22;9.80;99.90
59857;DHT22;45733;52.668;6.860;2022-12-28T17:33:54;9.70;99.90
59857;DHT22;45733;52.668;6.860;2022-12-28T17:36:20;9.70;99.90
59857;DHT22;45733;52.668;6.860;2022-12-28T17:38:46;9.80;99.90
59857;DHT22;45733;52.668;6.860;2022-12-28T17:41:16;9.70;99.90